Time;durP1;ratioP1;P1;durP2;ratioP2;P2;SDS_P1;SDS_P2;PMS_P1;PMS_P2;Temp;Humidity;BMP_temperature;BMP_pressure;BME280_temperature;BME280_humidity;BME280_pressure;Samples;Min_cycle;Max_cycle;Signal;HPM_P1;HPM_P2
2021/03/11 00:01:47;;;;;;;15.52;8.55;;;9.50;93.70;;;;;;5104046;28;20024;-65
2021/03/11 00:04:13;;;;;;;12.87;7.87;;;9.50;93.90;;;;;;5103588;28;20428;-64
2021/03/11 00:06:39;;;;;;;14.47;8.30;;;9.50;93.80;;;;;;5103938;28;20265;-66
2021/03/11 00:09:05;;;;;;;17.58;8.68;;;9.50;94.30;;;;;;5121934;28;20613;-64
2021/03/11 00:11:31;;;;;;;13.80;7.55;;;9.50;96.20;;;;;;5103478;28;20035;-64
2021/03/11 00:13:56;;;;;;;13.25;7.55;;;9.50;97.50;;;;;;5103937;28;20053;-65
2021/03/11 00:16:22;;;;;;;11.97;7.40;;;9.40;97.10;;;;;;5104603;28;20035;-64
2021/03/11 00:18:48;;;;;;;15.00;7.38;;;9.40;97.60;;;;;;5104287;28;20089;-65
2021/03/11 00:21:13;;;;;;;10.60;6.60;;;9.40;96.90;;;;;;5122306;28;20080;-66
2021/03/11 00:23:39;;;;;;;12.33;6.53;;;9.40;97.50;;;;;;5122337;28;20061;-65
2021/03/11 00:26:05;;;;;;;12.20;7.40;;;9.40;97.90;;;;;;5103586;28;20265;-65
2021/03/11 00:28:34;;;;;;;11.93;6.97;;;9.40;98.70;;;;;;5122629;28;20364;-65
2021/03/11 00:31:00;;;;;;;11.63;6.30;;;9.40;98.00;;;;;;5104022;28;20022;-65
2021/03/11 00:33:25;;;;;;;11.82;6.53;;;9.40;98.00;;;;;;5102966;28;20110;-65
2021/03/11 00:35:51;;;;;;;9.30;5.93;;;9.40;98.20;;;;;;5119648;28;20027;-66
2021/03/11 00:38:17;;;;;;;8.73;5.20;;;9.30;98.60;;;;;;5100568;28;20032;-64
2021/03/11 00:40:43;;;;;;;7.60;4.95;;;9.30;98.80;;;;;;5100939;28;20043;-62
2021/03/11 00:43:10;;;;;;;12.67;6.07;;;9.30;99.10;;;;;;5103265;28;20062;-62
2021/03/11 00:45:36;;;;;;;11.65;5.68;;;9.40;98.50;;;;;;5103896;28;20262;-62
2021/03/11 00:48:03;;;;;;;10.80;6.13;;;9.40;98.80;;;;;;5101990;28;20076;-62
2021/03/11 00:50:28;;;;;;;10.68;5.40;;;9.30;98.70;;;;;;5118596;28;20019;-63
2021/03/11 00:52:54;;;;;;;9.05;5.28;;;9.30;98.00;;;;;;5099639;28;20030;-62
2021/03/11 00:55:21;;;;;;;8.73;4.80;;;9.40;98.20;;;;;;5117678;28;20032;-61
2021/03/11 00:57:47;;;;;;;7.38;4.70;;;9.50;98.40;;;;;;5098670;28;20028;-62
2021/03/11 01:00:17;;;;;;;9.20;5.05;;;9.40;97.60;;;;;;5098971;28;20030;-62
2021/03/11 01:02:43;;;;;;;9.10;4.32;;;9.50;97.40;;;;;;5099989;28;20043;-61
2021/03/11 01:05:09;;;;;;;8.40;4.90;;;9.50;96.90;;;;;;5100883;28;20035;-61
2021/03/11 01:07:35;;;;;;;7.78;4.63;;;9.40;97.20;;;;;;5099481;28;20028;-61
2021/03/11 01:10:01;;;;;;;11.87;5.07;;;9.40;97.20;;;;;;5117784;28;20060;-62
2021/03/11 01:12:26;;;;;;;9.73;5.10;;;9.50;97.30;;;;;;5100376;28;20026;-60
2021/03/11 01:14:52;;;;;;;6.75;4.13;;;9.40;96.70;;;;;;5099765;28;20081;-61
2021/03/11 01:17:18;;;;;;;7.50;3.90;;;9.50;96.60;;;;;;5117523;28;20051;-61
2021/03/11 01:19:44;;;;;;;8.45;4.70;;;9.50;96.80;;;;;;5099694;28;20039;-62
2021/03/11 01:22:09;;;;;;;7.10;4.67;;;9.50;96.00;;;;;;5118180;28;20028;-61
2021/03/11 01:24:35;;;;;;;6.07;3.90;;;9.50;95.90;;;;;;5099985;28;20391;-60
2021/03/11 01:27:01;;;;;;;8.13;4.32;;;9.60;95.80;;;;;;5099570;28;20458;-62
2021/03/11 01:29:26;;;;;;;6.17;3.40;;;9.60;96.00;;;;;;5117581;28;20111;-62
2021/03/11 01:31:52;;;;;;;11.00;4.00;;;9.60;95.50;;;;;;5099452;28;20315;-61
2021/03/11 01:34:18;;;;;;;7.13;3.87;;;9.60;95.80;;;;;;5100276;28;20073;-60
2021/03/11 01:36:43;;;;;;;5.27;3.17;;;9.60;95.50;;;;;;5118702;28;20094;-62
2021/03/11 01:39:09;;;;;;;7.23;3.10;;;9.60;95.40;;;;;;5100321;28;20360;-62
2021/03/11 01:41:35;;;;;;;5.90;3.45;;;9.70;95.50;;;;;;5118426;28;20026;-62
2021/03/11 01:44:01;;;;;;;5.97;3.10;;;9.60;95.40;;;;;;5100294;28;20098;-62
2021/03/11 01:46:27;;;;;;;8.90;3.30;;;9.60;95.60;;;;;;5101130;28;20034;-62
2021/03/11 01:48:54;;;;;;;4.63;3.13;;;9.70;95.40;;;;;;5118533;28;20031;-61
2021/03/11 01:51:22;;;;;;;6.40;2.97;;;9.60;95.50;;;;;;5101099;28;20027;-62
2021/03/11 01:53:49;;;;;;;4.57;3.17;;;9.60;96.20;;;;;;5119306;28;20102;-62
2021/03/11 01:56:15;;;;;;;5.80;2.90;;;9.50;96.40;;;;;;5119221;28;20053;-62
2021/03/11 01:58:41;;;;;;;;;;;9.50;96.60;;;;;;5101171;28;20055;-61
2021/03/11 02:01:07;;;;;;;7.07;3.17;;;9.50;96.80;;;;;;5099866;28;19904;-61
2021/03/11 02:03:33;;;;;;;5.10;2.80;;;9.50;97.20;;;;;;5115667;28;20024;-66
2021/03/11 02:05:59;;;;;;;5.97;3.05;;;9.50;97.10;;;;;;5115557;28;20051;-66
2021/03/11 02:08:27;;;;;;;4.63;2.60;;;9.50;96.90;;;;;;5097016;28;20024;-66
2021/03/11 02:10:53;;;;;;;7.40;2.60;;;9.50;96.80;;;;;;5097232;28;20262;-66
2021/03/11 02:13:50;;;;;;;6.05;3.15;;;9.50;96.90;;;;;;5097624;28;20024;-66
2021/03/11 02:16:30;;;;;;;6.53;3.47;;;9.50;96.50;;;;;;5116464;28;20040;-65
2021/03/11 02:19:12;;;;;;;6.63;3.20;;;9.50;96.20;;;;;;5097689;28;20395;-65
2021/03/11 02:21:50;;;;;;;6.78;3.25;;;9.50;96.20;;;;;;5097797;28;20477;-67
2021/03/11 02:24:48;;;;;;;7.20;3.40;;;9.50;96.10;;;;;;5098038;28;20480;-67
2021/03/11 02:27:54;;;;;;;7.20;4.28;;;9.50;96.10;;;;;;5082274;28;20035;-66
2021/03/11 02:30:20;;;;;;;6.32;4.30;;;9.50;96.10;;;;;;5097384;28;20032;-66
2021/03/11 02:32:48;;;;;;;8.85;4.97;;;9.50;95.80;;;;;;5097480;28;20020;-66
2021/03/11 02:35:14;;;;;;;10.38;5.40;;;9.50;96.30;;;;;;5097124;28;20035;-66
2021/03/11 02:37:50;;;;;;;10.20;5.13;;;9.60;96.80;;;;;;5096723;28;20388;-66
2021/03/11 02:40:21;;;;;;;10.63;5.25;;;9.50;97.50;;;;;;5096807;28;20126;-66
2021/03/11 02:42:48;;;;;;;8.68;5.55;;;9.60;97.50;;;;;;5096638;28;20115;-66
2021/03/11 02:45:18;;;;;;;10.88;5.70;;;9.50;97.70;;;;;;5114694;28;20063;-66
2021/03/11 02:47:45;;;;;;;13.25;6.13;;;9.50;97.80;;;;;;5115155;28;20016;-66
2021/03/11 02:50:12;;;;;;;13.10;6.40;;;9.50;97.30;;;;;;5096364;28;20023;-65
2021/03/11 02:52:38;;;;;;;9.98;5.90;;;9.50;97.30;;;;;;5114756;28;20024;-66
2021/03/11 02:55:05;;;;;;;13.55;7.50;;;9.60;97.40;;;;;;5114396;28;20145;-66
2021/03/11 02:57:32;;;;;;;12.57;7.13;;;9.50;97.20;;;;;;5096206;28;20038;-66
2021/03/11 02:59:59;;;;;;;12.48;7.57;;;9.60;97.10;;;;;;5113785;28;20031;-66
2021/03/11 03:02:26;;;;;;;12.35;7.25;;;9.60;96.90;;;;;;5095914;28;20397;-66
2021/03/11 03:04:56;;;;;;;12.82;7.28;;;9.60;96.60;;;;;;5114540;28;20494;-66
2021/03/11 03:07:22;;;;;;;12.90;7.57;;;9.70;96.30;;;;;;5114224;28;20161;-66
2021/03/11 03:09:50;;;;;;;22.33;13.13;;;9.70;96.40;;;;;;5114089;28;20023;-66
2021/03/11 03:12:17;;;;;;;12.77;8.10;;;9.70;96.30;;;;;;5096258;28;20479;-67
2021/03/11 03:14:49;;;;;;;14.60;9.13;;;9.70;96.50;;;;;;5096018;28;20115;-67
2021/03/11 03:17:19;;;;;;;17.95;8.10;;;9.70;96.40;;;;;;5114175;28;20061;-67
2021/03/11 03:19:46;;;;;;;17.50;9.90;;;9.70;96.50;;;;;;5113735;28;20114;-67
2021/03/11 03:22:14;;;;;;;16.08;8.68;;;9.70;96.60;;;;;;5096689;28;20031;-67
2021/03/11 03:24:42;;;;;;;14.48;7.70;;;9.70;96.40;;;;;;5114466;28;20380;-67
2021/03/11 03:27:08;;;;;;;16.05;8.20;;;9.80;96.30;;;;;;5096430;28;20468;-67
2021/03/11 03:29:35;;;;;;;15.55;8.23;;;9.80;96.20;;;;;;5095812;28;20031;-67
2021/03/11 03:32:02;;;;;;;16.58;8.88;;;9.80;96.20;;;;;;5114025;28;20057;-66
2021/03/11 03:34:28;;;;;;;13.77;7.68;;;9.80;96.10;;;;;;5113900;28;20084;-65
2021/03/11 03:36:54;;;;;;;16.20;8.70;;;9.90;95.90;;;;;;5114688;28;20032;-67
2021/03/11 03:39:19;;;;;;;14.15;7.45;;;9.90;95.90;;;;;;5097038;28;20024;-68
2021/03/11 03:41:49;;;;;;;14.03;7.53;;;9.90;96.30;;;;;;5098093;28;20032;-68
2021/03/11 03:44:18;;;;;;;12.07;7.20;;;9.90;96.20;;;;;;5100785;28;20264;-68
2021/03/11 03:46:46;;;;;;;13.27;7.57;;;9.90;96.40;;;;;;5100902;28;20026;-67
2021/03/11 03:49:13;;;;;;;13.95;7.68;;;10.00;96.10;;;;;;5114687;28;20019;-67
2021/03/11 03:51:44;;;;;;;13.93;7.95;;;10.00;96.20;;;;;;5096259;28;20019;-67
2021/03/11 03:54:14;;;;;;;14.30;8.00;;;10.00;96.30;;;;;;5114477;28;20094;-66
2021/03/11 03:56:43;;;;;;;12.13;7.45;;;10.00;96.50;;;;;;5114089;28;20023;-68
2021/03/11 03:59:12;;;;;;;12.05;7.10;;;10.00;96.60;;;;;;5095844;28;20079;-67
2021/03/11 04:01:39;;;;;;;16.08;7.18;;;10.00;96.80;;;;;;5096006;28;20059;-67
2021/03/11 04:04:07;;;;;;;13.45;7.10;;;10.00;97.20;;;;;;5113488;28;20023;-68
2021/03/11 04:06:34;;;;;;;11.80;7.07;;;10.00;97.50;;;;;;5115544;28;20047;-68
2021/03/11 04:09:08;;;;;;;13.75;6.40;;;10.00;97.60;;;;;;5114374;28;20020;-67
2021/03/11 04:11:35;;;;;;;9.90;5.78;;;10.10;97.70;;;;;;5116526;28;20023;-68
2021/03/11 04:14:02;;;;;;;;;;;10.10;98.20;;;;;;5117928;28;20046;-68
2021/03/11 04:16:28;;;;;;;10.27;5.00;;;10.10;98.20;;;;;;5099231;28;19908;-68
2021/03/11 04:18:56;;;;;;;10.43;5.68;;;10.10;98.40;;;;;;5099051;28;20089;-68
2021/03/11 04:21:23;;;;;;;11.48;6.18;;;10.10;98.50;;;;;;5117502;28;20032;-68
2021/03/11 04:23:49;;;;;;;;;;;10.10;98.20;;;;;;5118078;28;20019;-67
2021/03/11 04:26:15;;;;;;;12.93;5.90;;;10.20;98.20;;;;;;5117631;28;19965;-67
2021/03/11 04:28:41;;;;;;;9.23;5.40;;;10.20;98.10;;;;;;5117438;28;20030;-68
2021/03/11 04:31:07;;;;;;;10.73;5.68;;;10.20;97.60;;;;;;5117151;28;20023;-66
2021/03/11 04:33:33;;;;;;;11.07;5.70;;;10.20;97.60;;;;;;5117178;28;20068;-68
2021/03/11 04:36:00;;;;;;;10.02;5.25;;;10.20;97.60;;;;;;5117171;28;20253;-67
2021/03/11 04:38:26;;;;;;;10.70;5.40;;;10.30;97.60;;;;;;5116998;28;20064;-69
2021/03/11 04:40:53;;;;;;;10.23;5.55;;;10.30;97.50;;;;;;5117206;28;20092;-67
2021/03/11 04:43:20;;;;;;;10.00;5.95;;;10.30;97.30;;;;;;5117137;28;20078;-67
2021/03/11 04:45:47;;;;;;;11.15;5.45;;;10.30;97.30;;;;;;5116942;28;20148;-69
2021/03/11 04:48:13;;;;;;;13.02;5.60;;;10.40;97.30;;;;;;5116696;28;20108;-69
2021/03/11 04:50:41;;;;;;;10.40;5.88;;;10.30;97.20;;;;;;5117036;28;20073;-68
2021/03/11 04:53:07;;;;;;;9.55;5.40;;;10.40;97.30;;;;;;5117415;28;20055;-66
2021/03/11 04:55:34;;;;;;;9.35;5.55;;;10.40;97.20;;;;;;5098439;28;20027;-67
2021/03/11 04:58:01;;;;;;;8.20;5.00;;;10.40;97.40;;;;;;5098146;28;20473;-67
2021/03/11 05:00:26;;;;;;;;;;;10.40;97.20;;;;;;5117153;28;20479;-67
2021/03/11 05:02:54;;;;;;;9.82;5.70;;;10.40;97.10;;;;;;5116596;28;20053;-65
2021/03/11 05:05:32;;;;;;;9.95;5.20;;;10.40;97.20;;;;;;5116445;28;20015;-65
2021/03/11 05:07:58;;;;;;;9.68;5.28;;;10.40;97.10;;;;;;5116261;28;20030;-66
2021/03/11 05:10:24;;;;;;;9.57;5.35;;;10.40;97.20;;;;;;5116394;28;20028;-66
2021/03/11 05:12:49;;;;;;;10.47;5.10;;;10.40;97.40;;;;;;5116479;28;20034;-66
2021/03/11 05:15:15;;;;;;;8.83;4.97;;;10.40;97.70;;;;;;5116311;28;20047;-66
2021/03/11 05:17:41;;;;;;;7.93;4.67;;;10.40;98.20;;;;;;5116323;28;20027;-65
2021/03/11 05:20:07;;;;;;;6.73;4.47;;;10.40;98.50;;;;;;5117797;22;20039;-64
2021/03/11 05:22:33;;;;;;;8.00;4.60;;;10.40;98.90;;;;;;5115647;28;20024;-64
2021/03/11 05:24:58;;;;;;;8.75;4.40;;;10.40;99.50;;;;;;5115549;28;20027;-64
2021/03/11 05:27:24;;;;;;;13.47;4.50;;;10.40;99.90;;;;;;5115419;28;20379;-64
2021/03/11 05:29:49;;;;;;;6.90;4.10;;;10.40;99.90;;;;;;5115249;28;20385;-63
2021/03/11 05:32:15;;;;;;;10.73;4.20;;;10.40;99.90;;;;;;5115511;28;20031;-65
2021/03/11 05:34:41;;;;;;;8.57;3.80;;;10.40;99.90;;;;;;5115766;28;20095;-63
2021/03/11 05:37:06;;;;;;;7.27;3.60;;;10.40;99.90;;;;;;5096961;28;20023;-64
2021/03/11 05:39:33;;;;;;;6.33;3.07;;;10.40;99.90;;;;;;5115064;28;20024;-62
2021/03/11 05:42:00;;;;;;;;;;;10.40;99.90;;;;;;5115707;28;20030;-63
2021/03/11 05:44:26;;;;;;;8.68;3.35;;;10.30;99.90;;;;;;5115592;28;19911;-64
2021/03/11 05:46:52;;;;;;;8.00;3.25;;;10.30;99.90;;;;;;5115350;28;20356;-64
2021/03/11 05:49:18;;;;;;;;;;;10.40;99.90;;;;;;5097219;28;20020;-64
2021/03/11 05:51:45;;;;;;;11.30;3.60;;;10.40;99.90;;;;;;5115281;28;19904;-65
2021/03/11 05:54:11;;;;;;;10.55;2.78;;;10.40;99.90;;;;;;5096667;28;20024;-65
2021/03/11 05:56:37;;;;;;;6.28;3.35;;;10.40;99.90;;;;;;5114951;28;20024;-63
2021/03/11 05:59:04;;;;;;;4.90;3.08;;;10.40;99.90;;;;;;5114736;28;20028;-63
2021/03/11 06:01:32;;;;;;;6.70;3.05;;;10.40;99.90;;;;;;5114966;28;20035;-63
2021/03/11 06:04:00;;;;;;;5.95;2.60;;;10.40;99.90;;;;;;5116414;28;20023;-63
2021/03/11 06:06:26;;;;;;;6.47;2.72;;;10.40;99.90;;;;;;5117547;28;20020;-63
2021/03/11 06:08:55;;;;;;;4.03;2.55;;;10.40;99.90;;;;;;5115152;28;20361;-63
2021/03/11 06:11:22;;;;;;;5.68;2.65;;;10.50;99.90;;;;;;5096913;28;20023;-64
2021/03/11 06:13:49;;;;;;;;;;;10.40;99.90;;;;;;5115629;28;20015;-63
2021/03/11 06:16:23;;;;;;;3.72;2.28;;;10.50;99.90;;;;;;5115590;28;20322;-64
2021/03/11 06:18:50;;;;;;;3.50;2.20;;;10.50;99.90;;;;;;5096363;28;20063;-64
2021/03/11 06:21:20;;;;;;;4.72;2.35;;;10.50;99.90;;;;;;5114407;28;20448;-62
2021/03/11 06:23:46;;;;;;;5.07;2.55;;;10.50;99.90;;;;;;5096167;28;20023;-64
2021/03/11 06:26:12;;;;;;;4.70;2.22;;;10.50;99.90;;;;;;5114921;28;20055;-69
2021/03/11 06:28:44;;;;;;;4.07;1.95;;;10.50;99.90;;;;;;5114321;28;20026;-68
2021/03/11 06:31:30;;;;;;;4.88;2.40;;;10.60;99.90;;;;;;5098765;28;20027;-67
2021/03/11 06:33:58;;;;;;;4.88;2.60;;;10.70;99.90;;;;;;5098302;28;20479;-67
2021/03/11 06:36:26;;;;;;;5.20;2.78;;;10.70;99.90;;;;;;5114370;28;20488;-68
2021/03/11 06:38:52;;;;;;;4.10;2.53;;;10.70;99.90;;;;;;5114015;28;20028;-69
2021/03/11 06:41:19;;;;;;;8.45;2.72;;;10.70;99.90;;;;;;5114028;28;20479;-65
2021/03/11 06:43:54;;;;;;;8.43;2.60;;;10.70;99.90;;;;;;5096148;28;20388;-65
2021/03/11 06:46:22;;;;;;;5.03;2.60;;;10.70;99.90;;;;;;5114410;28;20423;-66
2021/03/11 06:48:48;;;;;;;4.05;2.50;;;10.80;99.90;;;;;;5113797;28;20471;-64
2021/03/11 06:51:21;;;;;;;;;;;10.80;99.90;;;;;;5095418;28;20019;-64
2021/03/11 06:54:00;;;;;;;5.72;2.25;;;10.90;99.90;;;;;;5095711;28;19903;-64
2021/03/11 06:56:27;;;;;;;5.72;2.88;;;10.90;99.90;;;;;;5114430;28;20023;-61
2021/03/11 06:58:58;;;;;;;;;;;10.90;99.90;;;;;;5096134;28;20049;-68
2021/03/11 07:01:25;;;;;;;3.83;2.10;;;10.90;99.90;;;;;;5113952;28;19903;-66
2021/03/11 07:03:51;;;;;;;7.40;2.30;;;11.00;99.90;;;;;;5114172;28;20023;-67
2021/03/11 07:06:32;;;;;;;4.53;2.20;;;11.00;99.90;;;;;;5113712;28;20514;-67
2021/03/11 07:09:00;;;;;;;6.00;2.42;;;11.00;99.90;;;;;;5113859;28;20369;-66
2021/03/11 07:11:26;;;;;;;6.78;2.58;;;11.10;99.90;;;;;;5095437;28;20026;-68
2021/03/11 07:13:54;;;;;;;6.20;2.17;;;11.10;99.90;;;;;;5114054;28;20049;-68
2021/03/11 07:16:21;;;;;;;7.00;2.45;;;11.10;99.90;;;;;;5114224;28;20381;-66
2021/03/11 07:18:49;;;;;;;7.65;2.38;;;11.20;99.90;;;;;;5113910;28;20042;-66
2021/03/11 07:21:45;;;;;;;4.50;1.77;;;11.20;99.90;;;;;;5113895;28;20093;-69
2021/03/11 07:24:30;;;;;;;2.63;1.98;;;11.30;99.90;;;;;;5095891;28;20046;-66
2021/03/11 07:26:59;;;;;;;4.10;1.88;;;11.30;99.90;;;;;;5114286;28;20479;-68
2021/03/11 07:29:25;;;;;;;7.72;2.17;;;11.30;99.90;;;;;;5114033;28;20020;-67
2021/03/11 07:31:59;;;;;;;6.38;2.03;;;11.30;99.90;;;;;;5114339;28;20111;-69
2021/03/11 07:34:36;;;;;;;6.03;1.90;;;11.30;99.90;;;;;;5095386;28;20032;-67
2021/03/11 07:37:03;;;;;;;6.45;2.28;;;11.30;99.90;;;;;;5114066;28;20023;-69
2021/03/11 07:39:37;;;;;;;3.50;1.73;;;11.40;99.90;;;;;;5113623;28;20421;-67
2021/03/11 07:42:07;;;;;;;7.72;2.83;;;11.40;99.90;;;;;;5113423;28;20471;-67
2021/03/11 07:44:34;;;;;;;3.60;1.83;;;11.40;99.90;;;;;;5114199;28;20024;-67
2021/03/11 07:47:00;;;;;;;7.15;2.50;;;11.40;99.90;;;;;;5118153;28;20020;-69
2021/03/11 07:49:27;;;;;;;4.03;2.22;;;11.50;99.90;;;;;;5102562;28;20028;-69
2021/03/11 07:51:54;;;;;;;3.58;2.00;;;11.50;99.90;;;;;;5117537;28;20547;-68
2021/03/11 07:54:21;;;;;;;6.25;1.70;;;11.50;99.90;;;;;;5117521;28;20026;-64
2021/03/11 07:56:49;;;;;;;10.85;2.17;;;11.50;99.90;;;;;;5117068;28;20035;-70
2021/03/11 07:59:15;;;;;;;3.60;1.90;;;11.50;99.90;;;;;;5118972;28;20048;-68
2021/03/11 08:01:52;;;;;;;3.00;1.92;;;11.60;99.90;;;;;;5117538;28;20070;-68
2021/03/11 08:04:18;;;;;;;;;;;11.60;99.90;;;;;;5117613;28;20020;-67
2021/03/11 08:06:44;;;;;;;7.15;1.80;;;11.60;99.90;;;;;;5117148;28;19904;-67
2021/03/11 08:09:09;;;;;;;5.30;2.03;;;11.60;99.90;;;;;;5098775;28;20060;-68
2021/03/11 08:11:40;;;;;;;3.30;1.83;;;11.60;99.90;;;;;;5098300;28;20164;-67
2021/03/11 08:14:34;;;;;;;3.42;1.80;;;11.60;99.90;;;;;;5116793;28;20080;-67
2021/03/11 08:17:38;;;;;;;6.80;2.00;;;11.70;99.90;;;;;;5095416;28;20368;-66
2021/03/11 08:20:06;;;;;;;5.80;2.55;;;11.70;99.90;;;;;;5097984;28;20127;-67
2021/03/11 08:22:55;;;;;;;6.05;2.63;;;11.80;99.90;;;;;;5098813;28;20104;-68
2021/03/11 08:25:40;;;;;;;4.25;1.90;;;11.80;99.90;;;;;;5116577;28;20031;-68
2021/03/11 08:28:09;;;;;;;4.35;1.98;;;11.80;99.90;;;;;;5116922;28;20095;-67
2021/03/11 08:30:40;;;;;;;3.83;1.90;;;11.80;99.90;;;;;;5098019;28;20053;-66
2021/03/11 08:33:18;;;;;;;5.03;1.83;;;11.70;99.90;;;;;;5116425;28;20031;-66
2021/03/11 08:35:52;;;;;;;4.85;2.15;;;11.70;99.90;;;;;;5097848;28;20023;-65
2021/03/11 08:38:37;;;;;;;5.07;2.00;;;11.80;99.90;;;;;;5116714;28;20031;-65
2021/03/11 08:41:09;;;;;;;4.15;2.00;;;11.80;99.90;;;;;;5117143;28;20051;-66
2021/03/11 08:43:38;;;;;;;5.40;1.92;;;11.80;99.90;;;;;;5119509;28;20028;-66
2021/03/11 08:46:05;;;;;;;5.60;2.20;;;11.80;99.90;;;;;;5116695;28;20042;-68
2021/03/11 08:48:50;;;;;;;6.20;2.53;;;11.80;99.90;;;;;;5098356;28;20015;-68
2021/03/11 08:51:18;;;;;;;4.38;2.17;;;11.80;99.90;;;;;;5116684;28;20024;-68
2021/03/11 08:53:51;;;;;;;3.67;2.33;;;11.80;99.90;;;;;;5116430;28;20116;-68
2021/03/11 08:56:16;;;;;;;4.18;1.83;;;11.90;99.90;;;;;;5098025;28;20020;-69
2021/03/11 08:58:58;;;;;;;2.50;1.63;;;11.90;99.90;;;;;;5097838;28;20545;-68
2021/03/11 09:01:49;;;;;;;4.03;1.98;;;11.90;99.90;;;;;;5116609;28;20394;-68
2021/03/11 09:04:21;;;;;;;3.17;1.38;;;11.90;99.90;;;;;;5116830;28;20368;-65
2021/03/11 09:07:00;;;;;;;5.40;2.45;;;11.90;99.90;;;;;;5115864;28;20024;-65
2021/03/11 09:09:45;;;;;;;5.38;1.80;;;12.00;99.90;;;;;;5115899;28;20132;-64
2021/03/11 09:12:21;;;;;;;6.53;1.80;;;12.00;99.90;;;;;;5097500;28;20024;-65
2021/03/11 09:15:06;;;;;;;3.05;1.48;;;12.00;99.90;;;;;;5098792;28;20023;-67
2021/03/11 09:17:33;;;;;;;2.47;1.40;;;12.10;99.90;;;;;;5118884;28;20487;-66
2021/03/11 09:20:14;;;;;;;11.55;4.85;;;12.10;99.90;;;;;;5099144;28;20486;-66
2021/03/11 09:22:48;;;;;;;3.65;1.50;;;12.20;99.90;;;;;;5116033;28;20111;-68
2021/03/11 09:25:14;;;;;;;10.48;4.47;;;12.20;99.90;;;;;;5115839;28;20074;-66
2021/03/11 09:27:56;;;;;;;;;;;12.30;99.90;;;;;;5116645;28;20019;-65
2021/03/11 09:30:30;;;;;;;4.55;2.53;;;12.40;99.90;;;;;;5116095;28;19903;-65
2021/03/11 09:32:56;;;;;;;4.85;1.63;;;12.60;99.90;;;;;;5115509;28;20247;-65
2021/03/11 09:35:26;;;;;;;2.65;1.45;;;12.70;99.90;;;;;;5117582;28;20443;-66
2021/03/11 09:38:01;;;;;;;3.17;1.70;;;12.80;99.90;;;;;;5117543;28;20035;-65
2021/03/11 09:40:44;;;;;;;5.80;1.38;;;12.70;99.90;;;;;;5115575;28;20533;-65
2021/03/11 09:43:20;;;;;;;4.22;1.90;;;12.80;99.90;;;;;;5115289;28;20035;-66
2021/03/11 09:45:51;;;;;;;7.97;1.58;;;12.80;99.90;;;;;;5115703;28;20016;-65
2021/03/11 09:48:21;;;;;;;4.07;1.75;;;12.80;99.90;;;;;;5114879;28;20069;-65
2021/03/11 09:50:56;;;;;;;2.25;1.23;;;12.80;99.90;;;;;;5114953;28;20040;-65
2021/03/11 09:53:24;;;;;;;2.97;1.38;;;12.80;99.90;;;;;;5114952;28;20093;-64
2021/03/11 09:55:54;;;;;;;3.75;2.60;;;12.80;99.90;;;;;;5114757;28;20023;-65
2021/03/11 09:58:20;;;;;;;3.05;2.50;;;12.70;99.90;;;;;;5114850;28;20050;-67
2021/03/11 10:00:48;;;;;;;5.38;2.22;;;12.60;99.90;;;;;;5115232;28;20402;-65
2021/03/11 10:03:22;;;;;;;3.00;1.42;;;12.50;99.90;;;;;;5096571;28;20099;-67
2021/03/11 10:05:58;;;;;;;6.47;1.88;;;12.40;99.90;;;;;;5115105;28;20023;-69
2021/03/11 10:08:38;;;;;;;3.05;1.05;;;12.30;99.90;;;;;;5113855;28;20047;-67
2021/03/11 10:11:04;;;;;;;3.53;1.13;;;12.20;99.90;;;;;;5115228;28;20019;-65
2021/03/11 10:13:38;;;;;;;3.80;1.50;;;11.90;99.90;;;;;;5096291;28;20030;-66
2021/03/11 10:16:05;;;;;;;8.32;1.73;;;11.70;99.90;;;;;;5114978;28;20024;-65
2021/03/11 10:18:32;;;;;;;5.93;1.67;;;11.60;99.90;;;;;;5114479;28;20028;-65
2021/03/11 10:21:01;;;;;;;;;;;11.40;99.90;;;;;;5115239;28;20532;-66
2021/03/11 10:23:27;;;;;;;7.05;2.22;;;11.20;99.90;;;;;;5114498;28;19908;-66
2021/03/11 10:26:15;;;;;;;5.37;1.97;;;11.10;99.90;;;;;;5114597;28;20376;-66
2021/03/11 10:28:43;;;;;;;4.88;2.40;;;10.90;99.90;;;;;;5115576;28;20024;-65
2021/03/11 10:31:10;;;;;;;5.68;1.75;;;10.80;99.90;;;;;;5115079;28;20024;-68
2021/03/11 10:33:36;;;;;;;5.63;2.05;;;10.70;99.90;;;;;;5114670;28;20039;-70
2021/03/11 10:36:14;;;;;;;6.60;2.38;;;10.60;99.90;;;;;;5096555;28;20023;-71
2021/03/11 10:38:40;;;;;;;4.45;1.65;;;10.50;99.90;;;;;;5117994;28;20043;-67
2021/03/11 10:41:11;;;;;;;2.75;1.80;;;10.50;99.90;;;;;;5115543;28;20082;-65
2021/03/11 10:43:37;;;;;;;11.02;3.25;;;10.40;99.90;;;;;;5114794;28;20026;-67
2021/03/11 10:46:03;;;;;;;7.00;2.22;;;10.40;99.90;;;;;;5097966;28;20065;-68
2021/03/11 10:48:29;;;;;;;6.57;3.75;;;10.30;99.90;;;;;;5116660;28;20345;-63
2021/03/11 10:50:56;;;;;;;6.23;2.17;;;10.30;99.90;;;;;;5116862;28;20031;-64
2021/03/11 10:53:38;;;;;;;8.73;2.20;;;10.30;99.90;;;;;;5115463;28;20027;-64
2021/03/11 10:56:07;;;;;;;7.00;2.13;;;10.30;99.90;;;;;;5114016;28;20471;-64
2021/03/11 10:58:33;;;;;;;4.07;1.98;;;10.30;99.90;;;;;;5114489;28;20047;-64
2021/03/11 11:01:14;;;;;;;5.10;2.10;;;10.30;99.90;;;;;;5115091;28;20459;-64
2021/03/11 11:03:41;;;;;;;4.97;2.50;;;10.30;99.90;;;;;;5114024;28;20020;-64
2021/03/11 11:06:08;;;;;;;4.88;2.28;;;10.30;99.90;;;;;;5113756;28;20073;-65
2021/03/11 11:08:35;;;;;;;4.57;2.33;;;10.30;99.90;;;;;;5113523;28;20081;-64
2021/03/11 11:11:02;;;;;;;6.00;2.20;;;10.40;99.90;;;;;;5113620;28;20034;-64
2021/03/11 11:13:29;;;;;;;3.65;1.80;;;10.40;99.90;;;;;;5095449;28;20110;-64
2021/03/11 11:15:54;;;;;;;6.50;2.35;;;10.40;99.90;;;;;;5113563;28;20019;-64
2021/03/11 11:18:20;;;;;;;4.13;2.10;;;10.50;99.90;;;;;;5114097;28;20488;-65
2021/03/11 11:20:46;;;;;;;4.03;1.98;;;10.50;99.90;;;;;;5113338;28;20097;-67
2021/03/11 11:23:12;;;;;;;5.18;1.80;;;10.50;99.90;;;;;;5113988;28;20024;-65
2021/03/11 11:25:37;;;;;;;5.77;1.80;;;10.50;99.90;;;;;;5096727;28;20024;-65
2021/03/11 11:28:04;;;;;;;5.43;2.30;;;10.60;99.90;;;;;;5115083;28;20076;-64
2021/03/11 11:30:29;;;;;;;7.28;2.00;;;10.60;99.90;;;;;;5114453;28;20039;-65
2021/03/11 11:32:55;;;;;;;3.70;1.83;;;10.60;99.90;;;;;;5113363;28;20111;-65
2021/03/11 11:35:21;;;;;;;5.23;2.33;;;10.70;99.90;;;;;;5114139;28;20019;-67
2021/03/11 11:37:50;;;;;;;3.70;1.70;;;10.70;99.90;;;;;;5114150;28;20030;-67
2021/03/11 11:40:17;;;;;;;3.70;2.38;;;10.80;99.90;;;;;;5113439;28;20031;-70
2021/03/11 11:42:43;;;;;;;;;;;10.90;99.90;;;;;;5113990;28;20030;-67
2021/03/11 11:45:09;;;;;;;3.53;1.42;;;10.90;99.90;;;;;;5113552;28;19904;-66
2021/03/11 11:47:35;;;;;;;;;;;11.00;99.90;;;;;;5114817;28;20041;-67
2021/03/11 11:50:01;;;;;;;3.63;1.92;;;11.00;99.90;;;;;;5096083;28;20349;-69
2021/03/11 11:52:27;;;;;;;7.33;1.60;;;11.00;99.90;;;;;;5113527;28;20046;-68
2021/03/11 11:54:52;;;;;;;3.55;2.22;;;11.00;99.90;;;;;;5094868;28;20028;-64
2021/03/11 11:57:18;;;;;;;3.50;2.00;;;11.10;99.90;;;;;;5113034;28;20034;-65
2021/03/11 11:59:44;;;;;;;5.17;2.40;;;11.10;99.90;;;;;;5112967;28;20028;-64
2021/03/11 12:02:10;;;;;;;4.03;2.73;;;11.30;99.90;;;;;;5094641;28;20518;-66
2021/03/11 12:04:36;;;;;;;3.45;1.70;;;11.40;99.90;;;;;;5113113;28;20031;-66
2021/03/11 12:07:01;;;;;;;2.45;1.65;;;11.40;99.90;;;;;;5112811;28;20069;-67
2021/03/11 12:09:28;;;;;;;3.63;2.25;;;11.50;99.90;;;;;;5095240;28;20107;-69
2021/03/11 12:11:53;;;;;;;5.28;1.50;;;11.60;99.90;;;;;;5113573;28;20065;-67
2021/03/11 12:14:19;;;;;;;1.63;1.20;;;11.70;99.90;;;;;;5113642;28;20103;-68
2021/03/11 12:16:45;;;;;;;1.85;1.33;;;11.70;99.90;;;;;;5113944;28;20491;-67
2021/03/11 12:19:11;;;;;;;2.78;1.52;;;11.90;99.90;;;;;;5094776;28;20054;-70
2021/03/11 12:21:37;;;;;;;3.20;1.30;;;12.00;99.90;;;;;;5113432;28;20025;-69
2021/03/11 12:24:06;;;;;;;2.70;1.30;;;12.10;99.90;;;;;;5113447;28;20480;-70
2021/03/11 12:26:31;;;;;;;2.05;1.45;;;12.10;99.90;;;;;;5113588;28;20726;-68
2021/03/11 12:29:00;;;;;;;3.77;1.40;;;12.20;99.90;;;;;;5094837;28;20045;-64
2021/03/11 12:31:26;;;;;;;1.67;1.27;;;12.20;99.90;;;;;;5113292;28;20024;-66
2021/03/11 12:33:52;;;;;;;2.03;1.20;;;12.20;99.90;;;;;;5116574;28;20041;-64
2021/03/11 12:36:17;;;;;;;2.42;1.55;;;12.20;99.90;;;;;;5116458;28;20016;-65
2021/03/11 12:38:43;;;;;;;3.03;1.65;;;12.20;99.90;;;;;;5098027;28;20030;-64
2021/03/11 12:41:09;;;;;;;2.90;1.37;;;12.20;99.90;;;;;;5118196;28;20020;-64
2021/03/11 12:43:35;;;;;;;2.97;1.67;;;12.20;99.90;;;;;;5099943;28;20023;-64
2021/03/11 12:46:01;;;;;;;1.65;1.17;;;12.20;99.90;;;;;;5117556;28;20024;-64
2021/03/11 12:48:27;;;;;;;2.63;1.30;;;12.20;99.90;;;;;;5118082;28;20376;-64
2021/03/11 12:50:53;;;;;;;2.63;1.43;;;12.10;99.90;;;;;;5117488;28;20031;-64
2021/03/11 12:53:20;;;;;;;3.08;1.15;;;12.00;99.90;;;;;;5116669;28;20264;-65
2021/03/11 12:55:46;;;;;;;2.08;1.35;;;12.00;99.90;;;;;;5116067;28;20098;-64
2021/03/11 12:58:12;;;;;;;2.67;1.65;;;11.90;99.90;;;;;;5116264;28;20112;-64
2021/03/11 13:00:37;;;;;;;3.97;1.10;;;11.80;99.90;;;;;;5116157;28;20023;-65